Terminal Aerodrome Forecast
Issued by NWS

Home | Current Version | Previous Version | Text Only | Print | Product List | Glossary On
Versions: 1 2 3 4 5 6 7 8 9 10 11 12 13 14 15 16 17 18 19
000
FTUS43 KDLH 080848 AAA
TAFBRD
TAF AMD
KBRD 080848Z 0809/0906 31014G18KT P6SM SCT025 BKN050
      TEMPO 0809/0813 6SM -SN OVC025
     FM081400 32014G21KT P6SM VCSH OVC025
     FM082100 31010KT P6SM OVC015=

USA.gov is the U.S. government's official web portal to all federal, state and local government web resources and services.